Thursday, January 18, 2018, 8:55 PM EST
Back to Local

KMSS, Massena International -richards Fld

Location: Massena, NY, United States Lat: 44.933
Local Time: 8:55 PM EST ( 1:55 GMT) Lon: -74.85
Time Zone: US/Eastern Elev: 213 ft

Show me the last for .
Show Decoded

2018-01-18 19:53 METAR KMSS 190053Z AUTO 23007KT 9SM OVC040 M04/M06 A2994 RMK AO2 SLP147
                 T10391061 =
2018-01-18 18:53 METAR KMSS 182353Z AUTO 23007KT 10SM OVC038 M04/M06 A2995 RMK AO2 SLP148 60000
                 T10391061 11033 21039 53001 =
2018-01-18 17:53 METAR KMSS 182253Z AUTO 23009KT 9SM OVC042 M04/M06 A2994 RMK AO2 SLP146
                 T10391056 =
2018-01-18 16:53 METAR KMSS 182153Z AUTO 22009KT 8SM OVC046 M03/M06 A2994 RMK AO2 SNB2056E12
                 SLP145 P0000 T10331061 =
2018-01-18 15:53 METAR KMSS 182053Z AUTO 22009KT 7SM SCT016 OVC045 M03/M06 A2995 RMK AO2 SLP147
                 60000 T10331056 55001 =
2018-01-18 14:53 METAR KMSS 181953Z AUTO 22010KT 8SM FEW017 OVC045 M03/M06 A2994 RMK AO2 SNE14
                 SLP147 P0000 T10331061 =
2018-01-18 14:28 METAR KMSS 181928Z AUTO 22011KT 7SM SCT018 OVC046 M03/M06 A2994 RMK AO2 SNE14
                 P0000 T10331061 =
2018-01-18 14:06 METAR KMSS 181906Z AUTO 23012KT 6SM -SN BKN016 OVC046 M03/M06 A2994 RMK AO2
                 P0000 T10331061 =
2018-01-18 13:53 METAR KMSS 181853Z AUTO 22012KT 5SM -SN SCT016 OVC045 M03/M06 A2994 RMK AO2
                 SLP145 P0000 T10331061 =
2018-01-18 13:29 METAR KMSS 181829Z AUTO 22010KT 5SM -SN SCT016 OVC045 M03/M06 A2994 RMK AO2
                 P0000 T10331061 =
2018-01-18 12:53 METAR KMSS 181753Z AUTO 23012KT 4SM -SN OVC017 M04/M07 A2995 RMK AO2 SLP148
                 P0000 60000 T10391067 11039 21050 58007 =
2018-01-18 12:11 METAR KMSS 181711Z AUTO 22015KT 5SM -SN BKN017 OVC043 M04/M07 A2996 RMK AO2
                 P0000 T10391067 =
2018-01-18 11:53 METAR KMSS 181653Z AUTO 23012KT 6SM -SN FEW017 OVC042 M04/M07 A2996 RMK AO2
                 SLP152 P0000 T10391067 =
2018-01-18 09:53 METAR KMSS 181453Z AUTO 22013KT 3SM -SN BR OVC045 M04/M07 A2997 RMK AO2 SNB1359
                 SLP156 P0000 60000 T10441067 53005 =
2018-01-18 08:53 METAR KMSS 181353Z AUTO 21011KT 9SM OVC041 M04/M07 A2997 RMK AO2 SLP154
                 T10441067 =
2018-01-18 07:53 METAR KMSS 181253Z AUTO 21013KT 10SM OVC041 M05/M07 A2996 RMK AO2 SLP152
                 T10501072 =
2018-01-18 06:53 METAR KMSS 181153Z AUTO 22012KT 10SM OVC042 M05/M07 A2996 RMK AO2 SLP152 60000
                 T10501072 11050 21056 56011 =
2018-01-18 05:53 METAR KMSS 181053Z AUTO 22010KT 10SM OVC042 M05/M07 A2996 RMK AO2 SNE0956 SLP152
                 P0000 T10501072 =
2018-01-18 04:53 METAR KMSS 180953Z AUTO 20013KT 7SM -SN OVC040 M06/M07 A2996 RMK AO2 SLP152
                 P0000 T10561072 =
2018-01-18 03:53 METAR KMSS 180853Z AUTO 20010KT 4SM -SN BR FEW026 OVC032 M05/M07 A2999 RMK AO2
                 SLP162 P0000 60000 T10501072 58010 =
2018-01-18 02:53 METAR KMSS 180753Z AUTO 22011KT 7SM -SN OVC029 M05/M08 A3001 RMK AO2 SNB49
                 SLP171 P0000 T10501078 =
2018-01-18 01:53 METAR KMSS 180653Z AUTO 22011KT 10SM OVC027 M06/M08 A3002 RMK AO2 SLP173
                 T10561078 =
2018-01-18 00:53 METAR KMSS 180553Z AUTO 22013KT 10SM FEW019 OVC027 M06/M08 A3002 RMK AO2 SLP173
                 T10561078 11056 21078 56021 =
2018-01-17 23:53 METAR KMSS 180453Z AUTO 22010KT 10SM OVC025 M06/M08 A3004 RMK AO2 SLP180
                 T10561083 410501128 =
2018-01-17 22:53 METAR KMSS 180353Z AUTO 20016G25KT 10SM OVC023 M06/M08 A3004 RMK AO2 SLP180
                 T10611083 =
2018-01-17 21:53 METAR KMSS 180253Z AUTO 21010KT 10SM BKN015 OVC023 M06/M08 A3008 RMK AO2 SLP195
                 T10561078 56024 =
2018-01-17 21:06 METAR KMSS 180206Z AUTO 22009KT 10SM BKN018 OVC031 M06/M08 A3009 RMK AO2
                 T10611078 =

Support USWX by starting your Amazon purchase here.